sensor_id;sensor_type;location;lat;lon;timestamp;pressure;altitude;pressure_sealevel;temperature;humidity
29535;BME280;72082;52.650;8.116;2024-01-30T00:02:05;102402.25;;;4.71;100.00
29535;BME280;72082;52.650;8.116;2024-01-30T00:04:30;102392.81;;;4.69;100.00
29535;BME280;72082;52.650;8.116;2024-01-30T00:06:55;102391.94;;;4.68;100.00
29535;BME280;72082;52.650;8.116;2024-01-30T00:09:21;102399.56;;;4.68;100.00
29535;BME280;72082;52.650;8.116;2024-01-30T00:11:46;102395.28;;;4.67;100.00
29535;BME280;72082;52.650;8.116;2024-01-30T00:14:11;102395.28;;;4.67;100.00
29535;BME280;72082;52.650;8.116;2024-01-30T00:16:36;102399.41;;;4.65;100.00
29535;BME280;72082;52.650;8.116;2024-01-30T00:19:02;102396.00;;;4.65;100.00
29535;BME280;72082;52.650;8.116;2024-01-30T00:21:27;102398.53;;;4.65;100.00
29535;BME280;72082;52.650;8.116;2024-01-30T00:23:52;102395.13;;;4.64;100.00
29535;BME280;72082;52.650;8.116;2024-01-30T00:26:17;102390.91;;;4.65;100.00
29535;BME280;72082;52.650;8.116;2024-01-30T00:28:43;102391.81;;;4.65;100.00
29535;BME280;72082;52.650;8.116;2024-01-30T00:31:08;102391.81;;;4.65;100.00
29535;BME280;72082;52.650;8.116;2024-01-30T00:33:33;102383.41;;;4.66;100.00
29535;BME280;72082;52.650;8.116;2024-01-30T00:35:58;102380.03;;;4.67;100.00
29535;BME280;72082;52.650;8.116;2024-01-30T00:38:24;102382.56;;;4.67;100.00
29535;BME280;72082;52.650;8.116;2024-01-30T00:40:49;102380.91;;;4.68;100.00
29535;BME280;72082;52.650;8.116;2024-01-30T00:43:15;102382.66;;;4.69;100.00
29535;BME280;72082;52.650;8.116;2024-01-30T00:45:40;102378.44;;;4.69;100.00
29535;BME280;72082;52.650;8.116;2024-01-30T00:48:06;102374.22;;;4.70;100.00
29535;BME280;72082;52.650;8.116;2024-01-30T00:50:31;102367.50;;;4.70;100.00
29535;BME280;72082;52.650;8.116;2024-01-30T00:52:56;102365.97;;;4.74;100.00
29535;BME280;72082;52.650;8.116;2024-01-30T00:55:21;102356.69;;;4.74;100.00
29535;BME280;72082;52.650;8.116;2024-01-30T00:57:46;102358.41;;;4.75;100.00
29535;BME280;72082;52.650;8.116;2024-01-30T01:00:12;102349.88;;;4.73;100.00
29535;BME280;72082;52.650;8.116;2024-01-30T01:02:38;102355.72;;;4.72;100.00
29535;BME280;72082;52.650;8.116;2024-01-30T01:05:03;102347.97;;;4.69;100.00
29535;BME280;72082;52.650;8.116;2024-01-30T01:07:28;102353.72;;;4.65;100.00
29535;BME280;72082;52.650;8.116;2024-01-30T01:09:53;102355.31;;;4.63;100.00
29535;BME280;72082;52.650;8.116;2024-01-30T01:12:19;102354.38;;;4.61;100.00
29535;BME280;72082;52.650;8.116;2024-01-30T01:14:44;102357.72;;;4.60;100.00
29535;BME280;72082;52.650;8.116;2024-01-30T01:17:09;102355.97;;;4.59;100.00
29535;BME280;72082;52.650;8.116;2024-01-30T01:19:34;102359.31;;;4.58;100.00
29535;BME280;72082;52.650;8.116;2024-01-30T01:21:59;102357.66;;;4.59;100.00
29535;BME280;72082;52.650;8.116;2024-01-30T01:24:25;102356.09;;;4.62;100.00
29535;BME280;72082;52.650;8.116;2024-01-30T01:26:50;102353.72;;;4.65;100.00
29535;BME280;72082;52.650;8.116;2024-01-30T01:29:15;102349.56;;;4.67;100.00
29535;BME280;72082;52.650;8.116;2024-01-30T01:31:40;102351.31;;;4.68;100.00
29535;BME280;72082;52.650;8.116;2024-01-30T01:34:06;102348.13;;;4.72;100.00
29535;BME280;72082;52.650;8.116;2024-01-30T01:36:31;102344.06;;;4.76;100.00
29535;BME280;72082;52.650;8.116;2024-01-30T01:38:56;102348.41;;;4.78;100.00
29535;BME280;72082;52.650;8.116;2024-01-30T01:41:21;102341.72;;;4.80;100.00
29535;BME280;72082;52.650;8.116;2024-01-30T01:43:46;102346.81;;;4.80;100.00
29535;BME280;72082;52.650;8.116;2024-01-30T01:46:12;102348.56;;;4.81;100.00
29535;BME280;72082;52.650;8.116;2024-01-30T01:48:37;102343.53;;;4.83;100.00
29535;BME280;72082;52.650;8.116;2024-01-30T01:51:03;102344.47;;;4.85;100.00
29535;BME280;72082;52.650;8.116;2024-01-30T01:53:28;102342.78;;;4.85;100.00
29535;BME280;72082;52.650;8.116;2024-01-30T01:55:54;102335.19;;;4.85;100.00
29535;BME280;72082;52.650;8.116;2024-01-30T01:58:21;102335.19;;;4.85;100.00
29535;BME280;72082;52.650;8.116;2024-01-30T02:00:46;102335.13;;;4.84;100.00
29535;BME280;72082;52.650;8.116;2024-01-30T02:03:13;102329.97;;;4.82;100.00
29535;BME280;72082;52.650;8.116;2024-01-30T02:05:39;102327.41;;;4.82;100.00
29535;BME280;72082;52.650;8.116;2024-01-30T02:08:06;102330.03;;;4.84;100.00
29535;BME280;72082;52.650;8.116;2024-01-30T02:10:32;102326.63;;;4.83;100.00
29535;BME280;72082;52.650;8.116;2024-01-30T02:12:57;102333.47;;;4.84;100.00
29535;BME280;72082;52.650;8.116;2024-01-30T02:15:22;102328.38;;;4.84;100.00
29535;BME280;72082;52.650;8.116;2024-01-30T02:17:47;102330.03;;;4.84;100.00
29535;BME280;72082;52.650;8.116;2024-01-30T02:20:12;102333.47;;;4.84;100.00
29535;BME280;72082;52.650;8.116;2024-01-30T02:22:38;102331.75;;;4.85;100.00
29535;BME280;72082;52.650;8.116;2024-01-30T02:25:05;102328.53;;;4.87;100.00
29535;BME280;72082;52.650;8.116;2024-01-30T02:27:31;102319.44;;;4.92;100.00
29535;BME280;72082;52.650;8.116;2024-01-30T02:29:56;102309.53;;;4.98;100.00
29535;BME280;72082;52.650;8.116;2024-01-30T02:32:21;102305.53;;;5.04;100.00
29535;BME280;72082;52.650;8.116;2024-01-30T02:34:46;102313.28;;;5.07;100.00
29535;BME280;72082;52.650;8.116;2024-01-30T02:37:12;102299.84;;;5.09;100.00
29535;BME280;72082;52.650;8.116;2024-01-30T02:39:37;102304.13;;;5.10;100.00
29535;BME280;72082;52.650;8.116;2024-01-30T02:42:02;102305.81;;;5.10;100.00
29535;BME280;72082;52.650;8.116;2024-01-30T02:44:27;102301.50;;;5.09;100.00
29535;BME280;72082;52.650;8.116;2024-01-30T02:46:52;102298.97;;;5.09;100.00
29535;BME280;72082;52.650;8.116;2024-01-30T02:49:18;102295.59;;;5.08;100.00
29535;BME280;72082;52.650;8.116;2024-01-30T02:51:43;102289.78;;;5.11;100.00
29535;BME280;72082;52.650;8.116;2024-01-30T02:54:08;102290.75;;;5.14;100.00
29535;BME280;72082;52.650;8.116;2024-01-30T02:56:33;102281.66;;;5.19;100.00
29535;BME280;72082;52.650;8.116;2024-01-30T02:58:58;102278.47;;;5.23;100.00
29535;BME280;72082;52.650;8.116;2024-01-30T03:01:24;102276.13;;;5.28;100.00
29535;BME280;72082;52.650;8.116;2024-01-30T03:03:49;102276.28;;;5.32;100.00
29535;BME280;72082;52.650;8.116;2024-01-30T03:06:14;102273.88;;;5.35;100.00
29535;BME280;72082;52.650;8.116;2024-01-30T03:08:39;102266.41;;;5.38;100.00
29535;BME280;72082;52.650;8.116;2024-01-30T03:11:04;102264.00;;;5.41;100.00
29535;BME280;72082;52.650;8.116;2024-01-30T03:13:30;102266.59;;;5.43;100.00
29535;BME280;72082;52.650;8.116;2024-01-30T03:15:55;102270.94;;;5.45;100.00
29535;BME280;72082;52.650;8.116;2024-01-30T03:18:20;102265.94;;;5.47;100.00
29535;BME280;72082;52.650;8.116;2024-01-30T03:20:45;102264.25;;;5.47;100.00
29535;BME280;72082;52.650;8.116;2024-01-30T03:23:11;102253.28;;;5.48;100.00
29535;BME280;72082;52.650;8.116;2024-01-30T03:25:36;102257.56;;;5.49;100.00
29535;BME280;72082;52.650;8.116;2024-01-30T03:28:01;102256.81;;;5.52;100.00
29535;BME280;72082;52.650;8.116;2024-01-30T03:30:26;102250.13;;;5.54;100.00
29535;BME280;72082;52.650;8.116;2024-01-30T03:32:51;102244.25;;;5.55;100.00
29535;BME280;72082;52.650;8.116;2024-01-30T03:35:18;102249.31;;;5.55;100.00
29535;BME280;72082;52.650;8.116;2024-01-30T03:37:43;102256.06;;;5.54;100.00
29535;BME280;72082;52.650;8.116;2024-01-30T03:40:09;102256.25;;;5.59;100.00
29535;BME280;72082;52.650;8.116;2024-01-30T03:42:34;102251.22;;;5.60;100.00
29535;BME280;72082;52.650;8.116;2024-01-30T03:45:00;102239.47;;;5.63;100.00
29535;BME280;72082;52.650;8.116;2024-01-30T03:47:25;102240.44;;;5.66;100.00
29535;BME280;72082;52.650;8.116;2024-01-30T03:49:50;102238.84;;;5.68;100.00
29535;BME280;72082;52.650;8.116;2024-01-30T03:52:15;102233.75;;;5.68;100.00
29535;BME280;72082;52.650;8.116;2024-01-30T03:54:40;102235.31;;;5.65;100.00
29535;BME280;72082;52.650;8.116;2024-01-30T03:57:06;102235.25;;;5.63;100.00
29535;BME280;72082;52.650;8.116;2024-01-30T03:59:31;102236.91;;;5.63;100.00
29535;BME280;72082;52.650;8.116;2024-01-30T04:01:56;102233.50;;;5.62;100.00
29535;BME280;72082;52.650;8.116;2024-01-30T04:04:21;102237.78;;;5.63;100.00
29535;BME280;72082;52.650;8.116;2024-01-30T04:06:46;102234.28;;;5.61;100.00
29535;BME280;72082;52.650;8.116;2024-01-30T04:09:12;102227.63;;;5.63;100.00
29535;BME280;72082;52.650;8.116;2024-01-30T04:11:41;102230.25;;;5.66;100.00
29535;BME280;72082;52.650;8.116;2024-01-30T04:14:06;102219.31;;;5.67;100.00
29535;BME280;72082;52.650;8.116;2024-01-30T04:16:31;102220.09;;;5.66;100.00
29535;BME280;72082;52.650;8.116;2024-01-30T04:18:57;102219.25;;;5.66;100.00
29535;BME280;72082;52.650;8.116;2024-01-30T04:21:23;102220.00;;;5.63;100.00
29535;BME280;72082;52.650;8.116;2024-01-30T04:23:48;102217.31;;;5.60;100.00
29535;BME280;72082;52.650;8.116;2024-01-30T04:26:14;102223.06;;;5.56;100.00
29535;BME280;72082;52.650;8.116;2024-01-30T04:28:41;102223.69;;;5.50;100.00
29535;BME280;72082;52.650;8.116;2024-01-30T04:31:07;102227.72;;;5.45;100.00
29535;BME280;72082;52.650;8.116;2024-01-30T04:33:32;102234.28;;;5.40;100.00
29535;BME280;72082;52.650;8.116;2024-01-30T04:35:57;102227.41;;;5.38;100.00
29535;BME280;72082;52.650;8.116;2024-01-30T04:38:22;102235.03;;;5.38;100.00
29535;BME280;72082;52.650;8.116;2024-01-30T04:40:48;102231.56;;;5.36;100.00
29535;BME280;72082;52.650;8.116;2024-01-30T04:43:13;102234.09;;;5.36;100.00
29535;BME280;72082;52.650;8.116;2024-01-30T04:45:38;102232.34;;;5.35;100.00
29535;BME280;72082;52.650;8.116;2024-01-30T04:48:03;102234.91;;;5.35;100.00
29535;BME280;72082;52.650;8.116;2024-01-30T04:50:29;102232.31;;;5.33;100.00
29535;BME280;72082;52.650;8.116;2024-01-30T04:52:54;102226.34;;;5.33;100.00
29535;BME280;72082;52.650;8.116;2024-01-30T04:55:19;102215.38;;;5.34;100.00
29535;BME280;72082;52.650;8.116;2024-01-30T04:57:44;102221.22;;;5.31;100.00
29535;BME280;72082;52.650;8.116;2024-01-30T05:00:10;102224.34;;;5.26;100.00
29535;BME280;72082;52.650;8.116;2024-01-30T05:02:35;102225.84;;;5.21;100.00
29535;BME280;72082;52.650;8.116;2024-01-30T05:05:00;102214.75;;;5.19;100.00
29535;BME280;72082;52.650;8.116;2024-01-30T05:07:26;102210.50;;;5.19;100.00
29535;BME280;72082;52.650;8.116;2024-01-30T05:09:51;102213.88;;;5.18;100.00
29535;BME280;72082;52.650;8.116;2024-01-30T05:12:16;102213.75;;;5.15;100.00
29535;BME280;72082;52.650;8.116;2024-01-30T05:14:41;102217.03;;;5.13;100.00
29535;BME280;72082;52.650;8.116;2024-01-30T05:17:07;102216.19;;;5.14;100.00
29535;BME280;72082;52.650;8.116;2024-01-30T05:19:32;102211.19;;;5.15;100.00
29535;BME280;72082;52.650;8.116;2024-01-30T05:21:57;102208.66;;;5.15;100.00
29535;BME280;72082;52.650;8.116;2024-01-30T05:24:22;102211.13;;;5.14;100.00
29535;BME280;72082;52.650;8.116;2024-01-30T05:26:47;102204.31;;;5.13;100.00
29535;BME280;72082;52.650;8.116;2024-01-30T05:29:13;102207.66;;;5.12;100.00
29535;BME280;72082;52.650;8.116;2024-01-30T05:31:38;102210.13;;;5.10;100.00
29535;BME280;72082;52.650;8.116;2024-01-30T05:34:03;102209.25;;;5.10;100.00
29535;BME280;72082;52.650;8.116;2024-01-30T05:36:28;102212.59;;;5.09;100.00
29535;BME280;72082;52.650;8.116;2024-01-30T05:38:53;102213.56;;;5.11;100.00
29535;BME280;72082;52.650;8.116;2024-01-30T05:41:19;102210.41;;;5.16;100.00
29535;BME280;72082;52.650;8.116;2024-01-30T05:43:45;102207.19;;;5.20;100.00
29535;BME280;72082;52.650;8.116;2024-01-30T05:46:10;102203.84;;;5.21;100.00
29535;BME280;72082;52.650;8.116;2024-01-30T05:48:35;102197.88;;;5.21;100.00
29535;BME280;72082;52.650;8.116;2024-01-30T05:51:01;102191.94;;;5.20;100.00
29535;BME280;72082;52.650;8.116;2024-01-30T05:53:26;102196.09;;;5.18;100.00
29535;BME280;72082;52.650;8.116;2024-01-30T05:55:52;102207.03;;;5.17;100.00
29535;BME280;72082;52.650;8.116;2024-01-30T05:58:17;102198.63;;;5.18;100.00
29535;BME280;72082;52.650;8.116;2024-01-30T06:00:42;102203.75;;;5.20;100.00
29535;BME280;72082;52.650;8.116;2024-01-30T06:03:07;102199.75;;;5.25;100.00
29535;BME280;72082;52.650;8.116;2024-01-30T06:05:32;102199.09;;;5.29;100.00
29535;BME280;72082;52.650;8.116;2024-01-30T06:07:58;102204.28;;;5.32;100.00
29535;BME280;72082;52.650;8.116;2024-01-30T06:10:23;102195.94;;;5.34;100.00
29535;BME280;72082;52.650;8.116;2024-01-30T06:12:48;102183.41;;;5.39;100.00
29535;BME280;72082;52.650;8.116;2024-01-30T06:15:13;102188.63;;;5.42;100.00
29535;BME280;72082;52.650;8.116;2024-01-30T06:17:39;102194.66;;;5.45;100.00
29535;BME280;72082;52.650;8.116;2024-01-30T06:20:05;102189.66;;;5.47;100.00
29535;BME280;72082;52.650;8.116;2024-01-30T06:22:30;102190.53;;;5.47;100.00
29535;BME280;72082;52.650;8.116;2024-01-30T06:24:55;102187.91;;;5.46;100.00
29535;BME280;72082;52.650;8.116;2024-01-30T06:27:20;102188.72;;;5.45;100.00
29535;BME280;72082;52.650;8.116;2024-01-30T06:29:46;102193.75;;;5.43;100.00
29535;BME280;72082;52.650;8.116;2024-01-30T06:32:11;102193.63;;;5.40;100.00
29535;BME280;72082;52.650;8.116;2024-01-30T06:34:36;102184.28;;;5.39;100.00
29535;BME280;72082;52.650;8.116;2024-01-30T06:37:01;102186.06;;;5.42;100.00
29535;BME280;72082;52.650;8.116;2024-01-30T06:39:26;102193.88;;;5.46;100.00
29535;BME280;72082;52.650;8.116;2024-01-30T06:41:52;102184.88;;;5.54;100.00
29535;BME280;72082;52.650;8.116;2024-01-30T06:44:17;102186.94;;;5.63;100.00
29535;BME280;72082;52.650;8.116;2024-01-30T06:46:42;102185.63;;;5.73;100.00
29535;BME280;72082;52.650;8.116;2024-01-30T06:49:07;102182.59;;;5.81;100.00
29535;BME280;72082;52.650;8.116;2024-01-30T06:51:33;102184.59;;;5.88;100.00
29535;BME280;72082;52.650;8.116;2024-01-30T06:53:58;102182.28;;;5.94;100.00
29535;BME280;72082;52.650;8.116;2024-01-30T06:56:23;102186.78;;;6.01;100.00
29535;BME280;72082;52.650;8.116;2024-01-30T06:58:49;102182.75;;;6.06;100.00
29535;BME280;72082;52.650;8.116;2024-01-30T07:01:14;102176.09;;;6.10;100.00
29535;BME280;72082;52.650;8.116;2024-01-30T07:03:40;102183.91;;;6.14;100.00
29535;BME280;72082;52.650;8.116;2024-01-30T07:06:05;102178.19;;;6.20;100.00
29535;BME280;72082;52.650;8.116;2024-01-30T07:08:30;102178.34;;;6.25;100.00
29535;BME280;72082;52.650;8.116;2024-01-30T07:10:55;102180.25;;;6.30;100.00
29535;BME280;72082;52.650;8.116;2024-01-30T07:13:21;102182.38;;;6.42;100.00
29535;BME280;72082;52.650;8.116;2024-01-30T07:15:46;102192.25;;;6.56;100.00
29535;BME280;72082;52.650;8.116;2024-01-30T07:18:11;102183.28;;;6.66;100.00
29535;BME280;72082;52.650;8.116;2024-01-30T07:20:36;102186.97;;;6.74;100.00
29535;BME280;72082;52.650;8.116;2024-01-30T07:23:01;102182.94;;;6.80;100.00
29535;BME280;72082;52.650;8.116;2024-01-30T07:25:27;102183.91;;;6.84;100.00
29535;BME280;72082;52.650;8.116;2024-01-30T07:27:52;102183.28;;;6.90;100.00
29535;BME280;72082;52.650;8.116;2024-01-30T07:30:18;102177.53;;;6.95;100.00
29535;BME280;72082;52.650;8.116;2024-01-30T07:32:43;102186.94;;;6.98;100.00
29535;BME280;72082;52.650;8.116;2024-01-30T07:35:09;102171.69;;;6.99;100.00
29535;BME280;72082;52.650;8.116;2024-01-30T07:37:34;102176.88;;;7.01;100.00
29535;BME280;72082;52.650;8.116;2024-01-30T07:39:59;102182.91;;;7.04;100.00
29535;BME280;72082;52.650;8.116;2024-01-30T07:42:24;102183.13;;;7.10;100.00
29535;BME280;72082;52.650;8.116;2024-01-30T07:44:49;102181.69;;;7.17;100.00
29535;BME280;72082;52.650;8.116;2024-01-30T07:47:15;102181.09;;;7.25;100.00
29535;BME280;72082;52.650;8.116;2024-01-30T07:49:40;102179.63;;;7.32;100.00
29535;BME280;72082;52.650;8.116;2024-01-30T07:52:05;102173.88;;;7.37;100.00
29535;BME280;72082;52.650;8.116;2024-01-30T07:54:31;102177.38;;;7.41;100.00
29535;BME280;72082;52.650;8.116;2024-01-30T07:56:57;102175.06;;;7.48;100.00
29535;BME280;72082;52.650;8.116;2024-01-30T07:59:22;102173.53;;;7.54;100.00
29535;BME280;72082;52.650;8.116;2024-01-30T08:01:47;102172.84;;;7.59;100.00
29535;BME280;72082;52.650;8.116;2024-01-30T08:04:12;102173.88;;;7.64;100.00
29535;BME280;72082;52.650;8.116;2024-01-30T08:06:37;102166.38;;;7.69;100.00
29535;BME280;72082;52.650;8.116;2024-01-30T08:09:03;102173.38;;;7.74;100.00
29535;BME280;72082;52.650;8.116;2024-01-30T08:11:28;102178.72;;;7.82;100.00
29535;BME280;72082;52.650;8.116;2024-01-30T08:13:53;102179.81;;;7.90;100.00
29535;BME280;72082;52.650;8.116;2024-01-30T08:16:18;102185.97;;;7.96;100.00
29535;BME280;72082;52.650;8.116;2024-01-30T08:18:44;102182.72;;;8.02;100.00
29535;BME280;72082;52.650;8.116;2024-01-30T08:21:09;102179.44;;;8.06;100.00
29535;BME280;72082;52.650;8.116;2024-01-30T08:23:34;102186.47;;;8.13;100.00
29535;BME280;72082;52.650;8.116;2024-01-30T08:25:59;102182.41;;;8.20;100.00
29535;BME280;72082;52.650;8.116;2024-01-30T08:28:25;102189.34;;;8.24;100.00
29535;BME280;72082;52.650;8.116;2024-01-30T08:30:50;102186.03;;;8.26;100.00
29535;BME280;72082;52.650;8.116;2024-01-30T08:33:15;102192.09;;;8.30;100.00
29535;BME280;72082;52.650;8.116;2024-01-30T08:35:40;102191.31;;;8.32;100.00
29535;BME280;72082;52.650;8.116;2024-01-30T08:38:05;102193.09;;;8.35;100.00
29535;BME280;72082;52.650;8.116;2024-01-30T08:40:31;102188.94;;;8.38;100.00
29535;BME280;72082;52.650;8.116;2024-01-30T08:42:56;102194.16;;;8.41;100.00
29535;BME280;72082;52.650;8.116;2024-01-30T08:45:21;102185.75;;;8.45;100.00
29535;BME280;72082;52.650;8.116;2024-01-30T08:47:46;102191.75;;;8.47;100.00
29535;BME280;72082;52.650;8.116;2024-01-30T08:50:11;102187.53;;;8.48;100.00
29535;BME280;72082;52.650;8.116;2024-01-30T08:52:37;102188.41;;;8.48;100.00
29535;BME280;72082;52.650;8.116;2024-01-30T08:55:02;102181.59;;;8.49;100.00
29535;BME280;72082;52.650;8.116;2024-01-30T08:57:27;102176.50;;;8.49;100.00
29535;BME280;72082;52.650;8.116;2024-01-30T08:59:52;102186.75;;;8.50;100.00
29535;BME280;72082;52.650;8.116;2024-01-30T09:02:18;102188.47;;;8.51;100.00
29535;BME280;72082;52.650;8.116;2024-01-30T09:04:43;102185.13;;;8.52;100.00
29535;BME280;72082;52.650;8.116;2024-01-30T09:07:09;102178.28;;;8.53;100.00
29535;BME280;72082;52.650;8.116;2024-01-30T09:09:34;102182.59;;;8.54;100.00
29535;BME280;72082;52.650;8.116;2024-01-30T09:11:59;102187.72;;;8.55;100.00
29535;BME280;72082;52.650;8.116;2024-01-30T09:14:25;102185.28;;;8.58;100.00
29535;BME280;72082;52.650;8.116;2024-01-30T09:16:50;102191.28;;;8.60;100.00
29535;BME280;72082;52.650;8.116;2024-01-30T09:19:15;102191.44;;;8.65;100.00
29535;BME280;72082;52.650;8.116;2024-01-30T09:21:40;102200.13;;;8.72;100.00
29535;BME280;72082;52.650;8.116;2024-01-30T09:24:06;102197.66;;;8.75;100.00
29535;BME280;72082;52.650;8.116;2024-01-30T09:26:31;102207.13;;;8.79;100.00
29535;BME280;72082;52.650;8.116;2024-01-30T09:28:56;102202.25;;;8.86;100.00
29535;BME280;72082;52.650;8.116;2024-01-30T09:31:21;102192.16;;;8.92;100.00
29535;BME280;72082;52.650;8.116;2024-01-30T09:33:46;102193.94;;;8.95;100.00
29535;BME280;72082;52.650;8.116;2024-01-30T09:36:12;102192.34;;;8.98;100.00
29535;BME280;72082;52.650;8.116;2024-01-30T09:38:37;102189.91;;;9.03;100.00
29535;BME280;72082;52.650;8.116;2024-01-30T09:41:03;102193.41;;;9.06;100.00
29535;BME280;72082;52.650;8.116;2024-01-30T09:43:33;102191.75;;;9.08;100.00
29535;BME280;72082;52.650;8.116;2024-01-30T09:45:59;102189.38;;;9.14;100.00
29535;BME280;72082;52.650;8.116;2024-01-30T09:48:25;102193.00;;;9.22;100.00
29535;BME280;72082;52.650;8.116;2024-01-30T09:50:52;102182.91;;;9.28;100.00
29535;BME280;72082;52.650;8.116;2024-01-30T09:53:17;102184.75;;;9.34;100.00
29535;BME280;72082;52.650;8.116;2024-01-30T09:55:43;102181.47;;;9.40;100.00
29535;BME280;72082;52.650;8.116;2024-01-30T09:58:08;102181.59;;;9.44;100.00
29535;BME280;72082;52.650;8.116;2024-01-30T10:00:33;102188.53;;;9.50;100.00
29535;BME280;72082;52.650;8.116;2024-01-30T10:02:58;102194.69;;;9.56;100.00
29535;BME280;72082;52.650;8.116;2024-01-30T10:05:26;102188.06;;;9.64;100.00
29535;BME280;72082;52.650;8.116;2024-01-30T10:07:56;102191.69;;;9.74;100.00
29535;BME280;72082;52.650;8.116;2024-01-30T10:10:25;102189.31;;;9.81;100.00
29535;BME280;72082;52.650;8.116;2024-01-30T10:12:50;102189.50;;;9.89;100.00
29535;BME280;72082;52.650;8.116;2024-01-30T10:15:17;102185.41;;;9.97;100.00
29535;BME280;72082;52.650;8.116;2024-01-30T10:17:44;102188.19;;;10.06;100.00
29535;BME280;72082;52.650;8.116;2024-01-30T10:20:10;102183.25;;;10.14;100.00
29535;BME280;72082;52.650;8.116;2024-01-30T10:22:35;102191.97;;;10.22;100.00
29535;BME280;72082;52.650;8.116;2024-01-30T10:25:00;102200.66;;;10.28;100.00
29535;BME280;72082;52.650;8.116;2024-01-30T10:27:26;102192.22;;;10.34;100.00
29535;BME280;72082;52.650;8.116;2024-01-30T10:29:52;102194.00;;;10.36;100.00
29535;BME280;72082;52.650;8.116;2024-01-30T10:32:17;102201.69;;;10.38;100.00
29535;BME280;72082;52.650;8.116;2024-01-30T10:34:42;102198.28;;;10.37;100.00
29535;BME280;72082;52.650;8.116;2024-01-30T10:37:09;102206.81;;;10.36;100.00
29535;BME280;72082;52.650;8.116;2024-01-30T10:39:41;102207.63;;;10.35;100.00
29535;BME280;72082;52.650;8.116;2024-01-30T10:42:11;102207.69;;;10.37;100.00
29535;BME280;72082;52.650;8.116;2024-01-30T10:44:44;102204.38;;;10.42;100.00
29535;BME280;72082;52.650;8.116;2024-01-30T10:47:17;102190.84;;;10.48;100.00
29535;BME280;72082;52.650;8.116;2024-01-30T10:49:43;102203.75;;;10.52;100.00
29535;BME280;72082;52.650;8.116;2024-01-30T10:52:09;102193.56;;;10.56;100.00
29535;BME280;72082;52.650;8.116;2024-01-30T10:54:36;102193.59;;;10.59;100.00
29535;BME280;72082;52.650;8.116;2024-01-30T10:57:03;102200.47;;;10.61;100.00
29535;BME280;72082;52.650;8.116;2024-01-30T10:59:30;102199.69;;;10.64;100.00
29535;BME280;72082;52.650;8.116;2024-01-30T11:01:57;102198.09;;;10.69;100.00
29535;BME280;72082;52.650;8.116;2024-01-30T11:04:22;102187.03;;;10.73;100.00
29535;BME280;72082;52.650;8.116;2024-01-30T11:06:49;102180.31;;;10.78;100.00
29535;BME280;72082;52.650;8.116;2024-01-30T11:09:17;102182.13;;;10.85;100.00
29535;BME280;72082;52.650;8.116;2024-01-30T11:14:14;102190.22;;;11.04;100.00
29535;BME280;72082;52.650;8.116;2024-01-30T11:16:40;102187.78;;;11.12;100.00
29535;BME280;72082;52.650;8.116;2024-01-30T11:19:10;102175.06;;;11.18;100.00
29535;BME280;72082;52.650;8.116;2024-01-30T11:21:41;102185.34;;;11.20;100.00
29535;BME280;72082;52.650;8.116;2024-01-30T11:24:07;102187.00;;;11.16;100.00
29535;BME280;72082;52.650;8.116;2024-01-30T11:26:33;102188.59;;;11.11;100.00
29535;BME280;72082;52.650;8.116;2024-01-30T11:28:58;102185.16;;;11.07;100.00
29535;BME280;72082;52.650;8.116;2024-01-30T11:31:23;102194.47;;;11.04;100.00
29535;BME280;72082;52.650;8.116;2024-01-30T11:33:52;102199.53;;;11.01;100.00
29535;BME280;72082;52.650;8.116;2024-01-30T11:36:21;102189.22;;;10.98;100.00
29535;BME280;72082;52.650;8.116;2024-01-30T11:38:50;102192.66;;;10.98;100.00
29535;BME280;72082;52.650;8.116;2024-01-30T11:41:15;102186.66;;;10.96;100.00
29535;BME280;72082;52.650;8.116;2024-01-30T11:43:41;102193.47;;;10.94;100.00
29535;BME280;72082;52.650;8.116;2024-01-30T11:46:07;102182.28;;;10.92;100.00
29535;BME280;72082;52.650;8.116;2024-01-30T11:48:32;102183.09;;;10.90;100.00
29535;BME280;72082;52.650;8.116;2024-01-30T11:50:57;102191.66;;;10.90;100.00
29535;BME280;72082;52.650;8.116;2024-01-30T11:53:23;102206.16;;;10.90;100.00
29535;BME280;72082;52.650;8.116;2024-01-30T11:55:51;102199.34;;;10.89;100.00
29535;BME280;72082;52.650;8.116;2024-01-30T11:58:16;102208.66;;;10.85;100.00
29535;BME280;72082;52.650;8.116;2024-01-30T12:00:41;102204.34;;;10.83;100.00
29535;BME280;72082;52.650;8.116;2024-01-30T12:03:07;102207.69;;;10.80;100.00
29535;BME280;72082;52.650;8.116;2024-01-30T12:05:32;102212.81;;;10.79;100.00
29535;BME280;72082;52.650;8.116;2024-01-30T12:07:58;102206.81;;;10.78;100.00
29535;BME280;72082;52.650;8.116;2024-01-30T12:10:23;102201.69;;;10.78;100.00
29535;BME280;72082;52.650;8.116;2024-01-30T12:12:51;102211.13;;;10.81;100.00
29535;BME280;72082;52.650;8.116;2024-01-30T12:15:18;102204.38;;;10.84;100.00
29535;BME280;72082;52.650;8.116;2024-01-30T12:17:43;102201.81;;;10.84;100.00
29535;BME280;72082;52.650;8.116;2024-01-30T12:20:11;102205.28;;;10.88;100.00
29535;BME280;72082;52.650;8.116;2024-01-30T12:22:38;102195.03;;;10.88;100.00
29535;BME280;72082;52.650;8.116;2024-01-30T12:25:24;102196.78;;;10.90;100.00
29535;BME280;72082;52.650;8.116;2024-01-30T12:27:50;102195.16;;;10.94;100.00
29535;BME280;72082;52.650;8.116;2024-01-30T12:30:15;102190.88;;;10.94;100.00
29535;BME280;72082;52.650;8.116;2024-01-30T12:32:42;102186.66;;;10.96;100.00
29535;BME280;72082;52.650;8.116;2024-01-30T12:35:20;102196.97;;;10.99;100.00
29535;BME280;72082;52.650;8.116;2024-01-30T12:37:46;102198.69;;;11.00;100.00
29535;BME280;72082;52.650;8.116;2024-01-30T12:40:13;102197.88;;;11.03;100.00
29535;BME280;72082;52.650;8.116;2024-01-30T12:42:39;102195.34;;;11.04;100.00